sensor_id;sensor_type;location;lat;lon;timestamp;P1;durP1;ratioP1;P2;durP2;ratioP2
70547;SDS011;58099;43.406;3.698;2023-03-01T10:32:18;9.90;;;6.15;;
70547;SDS011;58099;43.406;3.698;2023-03-01T10:34:44;8.93;;;5.78;;
70547;SDS011;58099;43.406;3.698;2023-03-01T10:37:13;11.27;;;5.97;;
70547;SDS011;58099;43.406;3.698;2023-03-01T10:40:00;9.98;;;5.85;;
70547;SDS011;58099;43.406;3.698;2023-03-01T10:42:34;11.95;;;6.00;;
70547;SDS011;58099;43.406;3.698;2023-03-01T10:50:31;10.85;;;6.25;;
70547;SDS011;58099;43.406;3.698;2023-03-01T10:52:58;9.88;;;6.32;;
70547;SDS011;58099;43.406;3.698;2023-03-01T11:03:18;10.10;;;6.70;;
70547;SDS011;58099;43.406;3.698;2023-03-01T11:06:20;10.10;;;6.05;;
70547;SDS011;58099;43.406;3.698;2023-03-01T11:08:48;10.17;;;6.50;;
70547;SDS011;58099;43.406;3.698;2023-03-01T11:11:19;12.23;;;5.78;;
70547;SDS011;58099;43.406;3.698;2023-03-01T11:16:26;9.93;;;5.95;;
70547;SDS011;58099;43.406;3.698;2023-03-01T11:21:50;9.87;;;6.20;;
70547;SDS011;58099;43.406;3.698;2023-03-01T11:24:17;8.40;;;5.93;;
70547;SDS011;58099;43.406;3.698;2023-03-01T11:26:47;8.85;;;5.30;;
70547;SDS011;58099;43.406;3.698;2023-03-01T11:29:21;9.82;;;5.93;;
70547;SDS011;58099;43.406;3.698;2023-03-01T11:32:07;10.25;;;5.95;;
70547;SDS011;58099;43.406;3.698;2023-03-01T11:37:16;10.68;;;5.70;;
70547;SDS011;58099;43.406;3.698;2023-03-01T11:42:54;8.60;;;5.05;;
70547;SDS011;58099;43.406;3.698;2023-03-01T11:45:22;9.02;;;5.72;;
70547;SDS011;58099;43.406;3.698;2023-03-01T11:50:35;8.15;;;5.13;;
70547;SDS011;58099;43.406;3.698;2023-03-01T11:53:13;8.40;;;5.10;;
70547;SDS011;58099;43.406;3.698;2023-03-01T12:01:39;7.82;;;5.30;;
70547;SDS011;58099;43.406;3.698;2023-03-01T12:04:17;7.95;;;5.32;;
70547;SDS011;58099;43.406;3.698;2023-03-01T12:15:30;8.15;;;5.10;;
70547;SDS011;58099;43.406;3.698;2023-03-01T12:27:08;8.50;;;4.65;;
70547;SDS011;58099;43.406;3.698;2023-03-01T12:37:56;7.13;;;4.60;;
70547;SDS011;58099;43.406;3.698;2023-03-01T12:43:02;9.52;;;6.32;;
70547;SDS011;58099;43.406;3.698;2023-03-01T12:51:17;7.90;;;4.70;;
70547;SDS011;58099;43.406;3.698;2023-03-01T12:53:48;6.90;;;4.20;;
70547;SDS011;58099;43.406;3.698;2023-03-01T12:56:16;8.27;;;4.82;;
70547;SDS011;58099;43.406;3.698;2023-03-01T13:01:25;7.07;;;4.33;;
70547;SDS011;58099;43.406;3.698;2023-03-01T13:12:46;7.67;;;4.17;;
70547;SDS011;58099;43.406;3.698;2023-03-01T13:17:47;7.68;;;4.63;;
70547;SDS011;58099;43.406;3.698;2023-03-01T13:20:17;6.33;;;3.83;;
70547;SDS011;58099;43.406;3.698;2023-03-01T13:22:46;6.72;;;4.70;;
70547;SDS011;58099;43.406;3.698;2023-03-01T13:27:43;7.63;;;5.10;;
70547;SDS011;58099;43.406;3.698;2023-03-01T13:35:50;8.10;;;5.30;;
70547;SDS011;58099;43.406;3.698;2023-03-01T13:41:16;8.80;;;4.77;;
70547;SDS011;58099;43.406;3.698;2023-03-01T13:44:11;7.80;;;4.95;;
70547;SDS011;58099;43.406;3.698;2023-03-01T13:49:19;8.00;;;4.72;;
70547;SDS011;58099;43.406;3.698;2023-03-01T13:51:49;7.93;;;5.38;;
70547;SDS011;58099;43.406;3.698;2023-03-01T13:54:17;8.10;;;5.03;;
70547;SDS011;58099;43.406;3.698;2023-03-01T13:56:53;7.55;;;4.88;;
70547;SDS011;58099;43.406;3.698;2023-03-01T13:59:20;7.65;;;4.90;;
70547;SDS011;58099;43.406;3.698;2023-03-01T14:01:54;6.22;;;4.32;;
70547;SDS011;58099;43.406;3.698;2023-03-01T14:04:25;8.57;;;4.90;;
70547;SDS011;58099;43.406;3.698;2023-03-01T14:09:41;6.90;;;4.55;;
70547;SDS011;58099;43.406;3.698;2023-03-01T14:18:23;8.02;;;4.30;;
70547;SDS011;58099;43.406;3.698;2023-03-01T14:20:58;6.53;;;4.17;;
70547;SDS011;58099;43.406;3.698;2023-03-01T14:23:24;6.95;;;4.43;;
70547;SDS011;58099;43.406;3.698;2023-03-01T14:25:53;6.93;;;4.00;;
70547;SDS011;58099;43.406;3.698;2023-03-01T14:28:21;7.55;;;4.60;;
70547;SDS011;58099;43.406;3.698;2023-03-01T14:30:57;6.40;;;4.27;;
70547;SDS011;58099;43.406;3.698;2023-03-01T14:33:33;6.70;;;4.38;;
70547;SDS011;58099;43.406;3.698;2023-03-01T14:41:02;6.72;;;4.03;;
70547;SDS011;58099;43.406;3.698;2023-03-01T14:43:53;7.40;;;3.93;;
70547;SDS011;58099;43.406;3.698;2023-03-01T14:48:53;6.43;;;4.30;;
70547;SDS011;58099;43.406;3.698;2023-03-01T14:51:23;6.40;;;4.07;;
70547;SDS011;58099;43.406;3.698;2023-03-01T14:53:49;7.25;;;4.00;;
70547;SDS011;58099;43.406;3.698;2023-03-01T14:56:16;7.63;;;4.27;;
70547;SDS011;58099;43.406;3.698;2023-03-01T14:58:45;7.00;;;3.70;;
70547;SDS011;58099;43.406;3.698;2023-03-01T15:01:15;6.65;;;3.97;;
70547;SDS011;58099;43.406;3.698;2023-03-01T15:03:42;6.93;;;4.20;;
70547;SDS011;58099;43.406;3.698;2023-03-01T15:06:11;7.72;;;3.88;;
70547;SDS011;58099;43.406;3.698;2023-03-01T15:08:42;7.07;;;4.37;;
70547;SDS011;58099;43.406;3.698;2023-03-01T15:13:39;7.45;;;4.18;;
70547;SDS011;58099;43.406;3.698;2023-03-01T15:16:09;6.83;;;4.57;;
70547;SDS011;58099;43.406;3.698;2023-03-01T15:18:43;6.60;;;4.10;;
70547;SDS011;58099;43.406;3.698;2023-03-01T15:21:18;7.45;;;4.57;;
70547;SDS011;58099;43.406;3.698;2023-03-01T15:23:50;7.32;;;3.92;;
70547;SDS011;58099;43.406;3.698;2023-03-01T15:26:31;7.63;;;4.18;;
70547;SDS011;58099;43.406;3.698;2023-03-01T15:29:04;7.37;;;4.10;;
70547;SDS011;58099;43.406;3.698;2023-03-01T15:31:41;6.72;;;4.20;;
70547;SDS011;58099;43.406;3.698;2023-03-01T15:34:20;7.65;;;4.07;;
70547;SDS011;58099;43.406;3.698;2023-03-01T15:36:52;7.68;;;4.32;;
70547;SDS011;58099;43.406;3.698;2023-03-01T15:42:11;7.00;;;4.63;;
70547;SDS011;58099;43.406;3.698;2023-03-01T15:47:46;7.32;;;4.40;;
70547;SDS011;58099;43.406;3.698;2023-03-01T15:50:19;6.80;;;4.32;;
70547;SDS011;58099;43.406;3.698;2023-03-01T15:52:48;7.35;;;4.40;;
70547;SDS011;58099;43.406;3.698;2023-03-01T15:55:16;7.40;;;4.30;;
70547;SDS011;58099;43.406;3.698;2023-03-01T15:58:09;9.05;;;4.90;;
70547;SDS011;58099;43.406;3.698;2023-03-01T16:00:38;7.60;;;4.35;;
70547;SDS011;58099;43.406;3.698;2023-03-01T16:03:05;7.90;;;4.68;;
70547;SDS011;58099;43.406;3.698;2023-03-01T16:05:32;8.23;;;5.43;;
70547;SDS011;58099;43.406;3.698;2023-03-01T16:08:00;11.87;;;6.40;;
70547;SDS011;58099;43.406;3.698;2023-03-01T16:10:27;9.00;;;5.68;;
70547;SDS011;58099;43.406;3.698;2023-03-01T16:12:53;10.07;;;5.65;;
70547;SDS011;58099;43.406;3.698;2023-03-01T16:15:21;8.45;;;5.50;;
70547;SDS011;58099;43.406;3.698;2023-03-01T16:17:52;8.90;;;5.85;;
70547;SDS011;58099;43.406;3.698;2023-03-01T16:20:18;10.10;;;6.00;;
70547;SDS011;58099;43.406;3.698;2023-03-01T16:22:44;9.40;;;5.97;;
70547;SDS011;58099;43.406;3.698;2023-03-01T16:25:12;8.57;;;5.85;;
70547;SDS011;58099;43.406;3.698;2023-03-01T16:27:43;8.80;;;5.53;;
70547;SDS011;58099;43.406;3.698;2023-03-01T16:30:10;10.57;;;6.88;;
70547;SDS011;58099;43.406;3.698;2023-03-01T16:32:38;10.43;;;6.18;;
70547;SDS011;58099;43.406;3.698;2023-03-01T16:35:08;9.77;;;6.40;;
70547;SDS011;58099;43.406;3.698;2023-03-01T16:37:35;10.38;;;6.15;;
70547;SDS011;58099;43.406;3.698;2023-03-01T16:40:01;10.30;;;6.30;;
70547;SDS011;58099;43.406;3.698;2023-03-01T16:42:33;9.05;;;6.15;;
70547;SDS011;58099;43.406;3.698;2023-03-01T16:44:59;11.40;;;6.82;;
70547;SDS011;58099;43.406;3.698;2023-03-01T16:47:26;8.65;;;6.03;;
70547;SDS011;58099;43.406;3.698;2023-03-01T16:49:53;8.97;;;5.90;;
70547;SDS011;58099;43.406;3.698;2023-03-01T16:52:19;10.52;;;5.63;;
70547;SDS011;58099;43.406;3.698;2023-03-01T16:54:45;10.85;;;6.40;;
70547;SDS011;58099;43.406;3.698;2023-03-01T16:57:11;10.05;;;6.30;;
70547;SDS011;58099;43.406;3.698;2023-03-01T16:59:36;9.07;;;5.90;;
70547;SDS011;58099;43.406;3.698;2023-03-01T17:02:03;10.43;;;6.50;;
70547;SDS011;58099;43.406;3.698;2023-03-01T17:04:36;10.87;;;6.40;;
70547;SDS011;58099;43.406;3.698;2023-03-01T17:07:02;9.55;;;6.32;;
70547;SDS011;58099;43.406;3.698;2023-03-01T17:09:28;10.05;;;6.28;;
70547;SDS011;58099;43.406;3.698;2023-03-01T17:11:53;10.77;;;6.90;;
70547;SDS011;58099;43.406;3.698;2023-03-01T17:14:19;12.93;;;6.72;;
70547;SDS011;58099;43.406;3.698;2023-03-01T17:16:45;11.40;;;6.55;;
70547;SDS011;58099;43.406;3.698;2023-03-01T17:19:11;10.67;;;6.73;;
70547;SDS011;58099;43.406;3.698;2023-03-01T17:21:42;10.70;;;6.57;;
70547;SDS011;58099;43.406;3.698;2023-03-01T17:24:08;10.68;;;6.75;;
70547;SDS011;58099;43.406;3.698;2023-03-01T17:26:34;9.27;;;6.07;;
70547;SDS011;58099;43.406;3.698;2023-03-01T17:29:00;9.10;;;5.83;;
70547;SDS011;58099;43.406;3.698;2023-03-01T17:31:26;9.98;;;6.00;;
70547;SDS011;58099;43.406;3.698;2023-03-01T17:33:52;10.47;;;6.70;;
70547;SDS011;58099;43.406;3.698;2023-03-01T17:36:17;9.63;;;6.10;;
70547;SDS011;58099;43.406;3.698;2023-03-01T17:38:43;10.33;;;6.27;;
70547;SDS011;58099;43.406;3.698;2023-03-01T17:41:10;9.98;;;5.88;;
70547;SDS011;58099;43.406;3.698;2023-03-01T17:43:36;9.95;;;6.22;;
70547;SDS011;58099;43.406;3.698;2023-03-01T17:46:02;10.88;;;6.53;;
70547;SDS011;58099;43.406;3.698;2023-03-01T17:48:27;11.63;;;6.75;;
70547;SDS011;58099;43.406;3.698;2023-03-01T17:50:53;10.57;;;6.75;;
70547;SDS011;58099;43.406;3.698;2023-03-01T17:53:20;10.90;;;6.10;;
70547;SDS011;58099;43.406;3.698;2023-03-01T17:55:45;9.63;;;6.20;;
70547;SDS011;58099;43.406;3.698;2023-03-01T17:58:17;11.40;;;6.22;;
70547;SDS011;58099;43.406;3.698;2023-03-01T18:00:46;9.30;;;5.80;;
70547;SDS011;58099;43.406;3.698;2023-03-01T18:03:13;10.60;;;6.13;;
70547;SDS011;58099;43.406;3.698;2023-03-01T18:05:39;10.82;;;6.38;;
70547;SDS011;58099;43.406;3.698;2023-03-01T18:08:05;9.83;;;6.10;;
70547;SDS011;58099;43.406;3.698;2023-03-01T18:10:31;10.77;;;6.60;;
70547;SDS011;58099;43.406;3.698;2023-03-01T18:13:00;10.77;;;6.80;;
70547;SDS011;58099;43.406;3.698;2023-03-01T18:15:26;10.33;;;6.20;;
70547;SDS011;58099;43.406;3.698;2023-03-01T18:17:52;12.50;;;7.13;;
70547;SDS011;58099;43.406;3.698;2023-03-01T18:20:18;10.52;;;6.63;;
70547;SDS011;58099;43.406;3.698;2023-03-01T18:22:47;9.10;;;6.30;;
70547;SDS011;58099;43.406;3.698;2023-03-01T18:25:14;11.32;;;6.35;;
70547;SDS011;58099;43.406;3.698;2023-03-01T18:27:40;10.43;;;6.78;;
70547;SDS011;58099;43.406;3.698;2023-03-01T18:30:06;11.87;;;7.10;;
70547;SDS011;58099;43.406;3.698;2023-03-01T18:32:33;12.23;;;7.80;;
70547;SDS011;58099;43.406;3.698;2023-03-01T18:34:58;13.00;;;7.63;;
70547;SDS011;58099;43.406;3.698;2023-03-01T18:37:24;12.55;;;7.85;;
70547;SDS011;58099;43.406;3.698;2023-03-01T18:39:51;11.50;;;6.70;;
70547;SDS011;58099;43.406;3.698;2023-03-01T18:42:17;10.88;;;6.65;;
70547;SDS011;58099;43.406;3.698;2023-03-01T18:44:44;11.07;;;6.68;;
70547;SDS011;58099;43.406;3.698;2023-03-01T18:47:11;11.85;;;6.13;;
70547;SDS011;58099;43.406;3.698;2023-03-01T18:49:36;21.90;;;9.95;;
70547;SDS011;58099;43.406;3.698;2023-03-01T18:52:02;11.43;;;6.37;;
70547;SDS011;58099;43.406;3.698;2023-03-01T18:54:28;15.32;;;7.75;;
70547;SDS011;58099;43.406;3.698;2023-03-01T18:56:54;12.27;;;6.97;;
70547;SDS011;58099;43.406;3.698;2023-03-01T18:59:20;11.23;;;6.38;;
70547;SDS011;58099;43.406;3.698;2023-03-01T19:01:46;11.55;;;5.97;;
70547;SDS011;58099;43.406;3.698;2023-03-01T19:04:11;12.43;;;6.38;;
70547;SDS011;58099;43.406;3.698;2023-03-01T19:06:37;11.00;;;6.50;;
70547;SDS011;58099;43.406;3.698;2023-03-01T19:09:03;15.13;;;8.52;;
70547;SDS011;58099;43.406;3.698;2023-03-01T19:11:31;17.90;;;9.95;;
70547;SDS011;58099;43.406;3.698;2023-03-01T19:13:58;19.77;;;10.40;;
70547;SDS011;58099;43.406;3.698;2023-03-01T19:16:25;19.53;;;10.53;;
70547;SDS011;58099;43.406;3.698;2023-03-01T19:18:54;22.45;;;11.65;;
70547;SDS011;58099;43.406;3.698;2023-03-01T19:21:23;22.92;;;12.32;;
70547;SDS011;58099;43.406;3.698;2023-03-01T19:23:50;23.98;;;13.30;;
70547;SDS011;58099;43.406;3.698;2023-03-01T19:26:17;25.63;;;14.93;;
70547;SDS011;58099;43.406;3.698;2023-03-01T19:28:45;27.47;;;14.27;;
70547;SDS011;58099;43.406;3.698;2023-03-01T19:31:15;25.38;;;14.13;;
70547;SDS011;58099;43.406;3.698;2023-03-01T19:33:43;25.10;;;13.50;;
70547;SDS011;58099;43.406;3.698;2023-03-01T19:36:09;24.02;;;13.02;;
70547;SDS011;58099;43.406;3.698;2023-03-01T19:38:37;26.27;;;13.20;;
70547;SDS011;58099;43.406;3.698;2023-03-01T19:41:04;25.70;;;13.68;;
70547;SDS011;58099;43.406;3.698;2023-03-01T19:43:31;24.90;;;13.23;;
70547;SDS011;58099;43.406;3.698;2023-03-01T19:45:57;24.63;;;14.20;;
70547;SDS011;58099;43.406;3.698;2023-03-01T19:48:23;23.75;;;13.52;;
70547;SDS011;58099;43.406;3.698;2023-03-01T19:50:50;25.60;;;14.10;;
70547;SDS011;58099;43.406;3.698;2023-03-01T19:53:16;28.40;;;14.00;;
70547;SDS011;58099;43.406;3.698;2023-03-01T19:55:42;29.58;;;14.27;;
70547;SDS011;58099;43.406;3.698;2023-03-01T19:58:09;29.17;;;13.73;;
70547;SDS011;58099;43.406;3.698;2023-03-01T20:00:36;26.02;;;13.32;;
70547;SDS011;58099;43.406;3.698;2023-03-01T20:03:03;27.48;;;13.48;;
70547;SDS011;58099;43.406;3.698;2023-03-01T20:05:35;26.48;;;13.13;;
70547;SDS011;58099;43.406;3.698;2023-03-01T20:08:03;26.60;;;12.67;;
70547;SDS011;58099;43.406;3.698;2023-03-01T20:10:30;27.67;;;13.50;;
70547;SDS011;58099;43.406;3.698;2023-03-01T20:12:57;27.95;;;13.13;;
70547;SDS011;58099;43.406;3.698;2023-03-01T20:15:23;29.13;;;14.20;;
70547;SDS011;58099;43.406;3.698;2023-03-01T20:17:49;27.90;;;13.63;;
70547;SDS011;58099;43.406;3.698;2023-03-01T20:20:15;27.50;;;14.53;;
70547;SDS011;58099;43.406;3.698;2023-03-01T20:22:41;26.80;;;14.52;;
70547;SDS011;58099;43.406;3.698;2023-03-01T20:25:07;27.45;;;15.00;;
70547;SDS011;58099;43.406;3.698;2023-03-01T20:27:33;24.52;;;13.20;;
70547;SDS011;58099;43.406;3.698;2023-03-01T20:29:59;27.10;;;13.80;;
70547;SDS011;58099;43.406;3.698;2023-03-01T20:32:24;25.33;;;13.23;;
70547;SDS011;58099;43.406;3.698;2023-03-01T20:34:50;26.45;;;13.57;;
70547;SDS011;58099;43.406;3.698;2023-03-01T20:37:18;28.73;;;13.82;;
70547;SDS011;58099;43.406;3.698;2023-03-01T20:39:46;27.05;;;13.90;;
70547;SDS011;58099;43.406;3.698;2023-03-01T20:42:12;26.33;;;12.83;;
70547;SDS011;58099;43.406;3.698;2023-03-01T20:44:38;25.13;;;13.27;;
70547;SDS011;58099;43.406;3.698;2023-03-01T20:47:08;27.95;;;14.60;;
70547;SDS011;58099;43.406;3.698;2023-03-01T20:49:34;27.13;;;13.87;;
70547;SDS011;58099;43.406;3.698;2023-03-01T20:52:00;25.90;;;14.10;;
70547;SDS011;58099;43.406;3.698;2023-03-01T20:54:26;26.40;;;14.35;;
70547;SDS011;58099;43.406;3.698;2023-03-01T20:56:52;25.43;;;14.03;;
70547;SDS011;58099;43.406;3.698;2023-03-01T20:59:18;31.52;;;16.83;;
70547;SDS011;58099;43.406;3.698;2023-03-01T21:01:44;32.92;;;18.83;;
70547;SDS011;58099;43.406;3.698;2023-03-01T21:04:10;29.97;;;16.70;;
70547;SDS011;58099;43.406;3.698;2023-03-01T21:06:37;29.00;;;14.98;;
70547;SDS011;58099;43.406;3.698;2023-03-01T21:09:03;30.13;;;16.85;;
70547;SDS011;58099;43.406;3.698;2023-03-01T21:11:28;29.15;;;15.80;;
70547;SDS011;58099;43.406;3.698;2023-03-01T21:13:54;27.40;;;15.00;;
70547;SDS011;58099;43.406;3.698;2023-03-01T21:16:21;26.90;;;14.57;;
70547;SDS011;58099;43.406;3.698;2023-03-01T21:18:46;29.02;;;15.75;;
70547;SDS011;58099;43.406;3.698;2023-03-01T21:21:14;29.03;;;16.90;;
70547;SDS011;58099;43.406;3.698;2023-03-01T21:23:42;28.33;;;15.77;;
70547;SDS011;58099;43.406;3.698;2023-03-01T21:26:09;29.30;;;15.60;;
70547;SDS011;58099;43.406;3.698;2023-03-01T21:28:37;31.67;;;15.90;;
70547;SDS011;58099;43.406;3.698;2023-03-01T21:33:38;29.53;;;15.83;;
70547;SDS011;58099;43.406;3.698;2023-03-01T21:36:06;28.98;;;15.50;;
70547;SDS011;58099;43.406;3.698;2023-03-01T21:38:34;24.58;;;13.75;;
70547;SDS011;58099;43.406;3.698;2023-03-01T21:41:02;19.20;;;10.27;;
70547;SDS011;58099;43.406;3.698;2023-03-01T21:43:29;24.33;;;12.70;;
70547;SDS011;58099;43.406;3.698;2023-03-01T21:45:55;25.07;;;13.60;;
70547;SDS011;58099;43.406;3.698;2023-03-01T21:48:24;23.42;;;13.00;;
70547;SDS011;58099;43.406;3.698;2023-03-01T21:50:53;27.07;;;13.60;;
70547;SDS011;58099;43.406;3.698;2023-03-01T21:53:20;23.23;;;12.20;;
70547;SDS011;58099;43.406;3.698;2023-03-01T21:55:46;24.83;;;13.10;;
70547;SDS011;58099;43.406;3.698;2023-03-01T21:58:12;25.60;;;13.32;;
70547;SDS011;58099;43.406;3.698;2023-03-01T22:00:38;27.05;;;13.82;;
70547;SDS011;58099;43.406;3.698;2023-03-01T22:03:03;26.67;;;14.10;;
70547;SDS011;58099;43.406;3.698;2023-03-01T22:05:29;28.35;;;14.10;;
70547;SDS011;58099;43.406;3.698;2023-03-01T22:07:55;24.80;;;13.40;;
70547;SDS011;58099;43.406;3.698;2023-03-01T22:10:21;27.08;;;13.98;;
70547;SDS011;58099;43.406;3.698;2023-03-01T22:12:55;24.20;;;12.33;;
70547;SDS011;58099;43.406;3.698;2023-03-01T22:15:21;26.98;;;13.90;;
70547;SDS011;58099;43.406;3.698;2023-03-01T22:17:48;26.15;;;13.35;;
70547;SDS011;58099;43.406;3.698;2023-03-01T22:20:14;28.35;;;13.20;;
70547;SDS011;58099;43.406;3.698;2023-03-01T22:22:40;24.73;;;12.43;;
70547;SDS011;58099;43.406;3.698;2023-03-01T22:25:07;31.75;;;14.38;;
70547;SDS011;58099;43.406;3.698;2023-03-01T22:27:34;27.50;;;14.18;;
70547;SDS011;58099;43.406;3.698;2023-03-01T22:30:05;28.50;;;14.00;;
70547;SDS011;58099;43.406;3.698;2023-03-01T22:32:33;28.85;;;14.30;;
70547;SDS011;58099;43.406;3.698;2023-03-01T22:34:59;29.87;;;14.93;;
70547;SDS011;58099;43.406;3.698;2023-03-01T22:37:24;30.95;;;14.40;;
70547;SDS011;58099;43.406;3.698;2023-03-01T22:39:50;27.07;;;14.43;;
70547;SDS011;58099;43.406;3.698;2023-03-01T22:42:16;28.20;;;14.73;;
70547;SDS011;58099;43.406;3.698;2023-03-01T22:44:42;28.98;;;14.95;;
70547;SDS011;58099;43.406;3.698;2023-03-01T22:47:08;28.43;;;13.53;;
70547;SDS011;58099;43.406;3.698;2023-03-01T22:49:34;28.15;;;13.70;;
70547;SDS011;58099;43.406;3.698;2023-03-01T22:51:59;28.60;;;14.27;;
